Rocky Ford, Georgia
Current Conditions -  °F | °C
As of 5:55 AM on Wednesday 22 Oct 2014 (Local Time) from KJYL Reporting Station
Clear Clear  
Wind Chill: 56°   Ceiling: Unl
Heat Index: 56°   Visibility: 10mi
Dew Point: 52°   Wind: 3mph
Humidity: 87%   Direction: 10°N
Pressure: 30.01"   Gusts: NA
Location:  32.66°N, 81.83°W
Report Text: KJYL 220955Z AUTO 01003KT 10SM CLR 13/11 A3001 RMK AO2 T01330111
Loading
Personal Weather Stations






























Interactive Weather Map
Tropical Storm Tracking
New forecast layout! Learn more

10-Day Weather Forecast

Advertisements
Track Severe Weather on mobile